createdAt,value
2018-10-01T00:00:22.011Z,929.92
2018-10-01T00:01:22.070Z,929.89
2018-10-01T00:02:22.024Z,929.91
2018-10-01T00:03:22.076Z,929.90
2018-10-01T00:04:22.071Z,929.89
2018-10-01T00:05:22.083Z,929.93
2018-10-01T00:06:22.204Z,929.95
2018-10-01T00:07:22.113Z,929.98
2018-10-01T00:08:22.128Z,929.96
2018-10-01T00:09:22.126Z,929.99
2018-10-01T00:10:22.149Z,930.00
2018-10-01T00:11:22.316Z,930.02
2018-10-01T00:12:22.175Z,930.02
2018-10-01T00:13:22.209Z,930.01
2018-10-01T00:14:22.196Z,930.01
2018-10-01T00:15:22.276Z,929.97
2018-10-01T00:16:22.333Z,929.97
2018-10-01T00:17:22.269Z,929.94
2018-10-01T00:18:22.274Z,929.95
2018-10-01T00:19:22.299Z,929.93
2018-10-01T00:20:22.354Z,929.93
2018-10-01T00:21:22.487Z,929.93
2018-10-01T00:22:22.329Z,929.91
2018-10-01T00:23:22.336Z,929.96
2018-10-01T00:24:22.355Z,929.90
2018-10-01T00:25:22.362Z,929.89
2018-10-01T00:26:22.555Z,929.88
2018-10-01T00:27:22.447Z,929.85
2018-10-01T00:28:22.415Z,929.90
2018-10-01T00:29:22.460Z,929.87
2018-10-01T00:30:22.443Z,929.87
2018-10-01T00:31:22.610Z,929.83
2018-10-01T00:32:22.486Z,929.86
2018-10-01T00:33:22.498Z,929.90
2018-10-01T00:34:22.527Z,929.86
2018-10-01T00:35:22.528Z,929.86
2018-10-01T00:36:22.698Z,929.87
2018-10-01T00:37:22.553Z,929.81
2018-10-01T00:38:22.596Z,929.82
2018-10-01T00:39:22.585Z,929.82
2018-10-01T00:40:22.616Z,929.87
2018-10-01T00:41:22.665Z,929.87
2018-10-01T00:42:22.755Z,929.89
2018-10-01T00:43:22.691Z,929.94
2018-10-01T00:44:22.658Z,929.89
2018-10-01T00:45:22.732Z,929.97
2018-10-01T00:46:22.854Z,929.97
2018-10-01T00:47:22.714Z,929.98
2018-10-01T00:48:22.715Z,929.96
2018-10-01T00:49:22.744Z,930.01
2018-10-01T00:50:22.772Z,930.01
2018-10-01T00:51:22.924Z,930.00
2018-10-01T00:52:22.787Z,930.02
2018-10-01T00:53:22.800Z,930.00
2018-10-01T00:54:22.812Z,930.01
2018-10-01T00:55:22.835Z,930.02
2018-10-01T00:56:22.999Z,930.06
2018-10-01T00:57:22.873Z,930.03
2018-10-01T00:58:22.877Z,930.03
2018-10-01T00:59:22.883Z,930.03
2018-10-01T01:00:22.915Z,930.02
2018-10-01T01:01:23.076Z,930.03
2018-10-01T01:02:22.950Z,930.03
2018-10-01T01:03:22.953Z,930.00
2018-10-01T01:04:22.976Z,930.03
2018-10-01T01:05:22.987Z,929.98
2018-10-01T01:06:23.144Z,929.98
2018-10-01T01:07:23.024Z,929.96
2018-10-01T01:08:23.041Z,929.95
2018-10-01T01:09:23.063Z,929.92
2018-10-01T01:10:23.054Z,929.92
2018-10-01T01:11:23.228Z,929.92
2018-10-01T01:12:23.087Z,929.89
2018-10-01T01:13:23.088Z,929.90
2018-10-01T01:14:23.109Z,929.90
2018-10-01T01:15:23.152Z,929.86
2018-10-01T01:16:23.208Z,929.92
2018-10-01T01:17:23.175Z,929.84
2018-10-01T01:18:23.176Z,929.88
2018-10-01T01:19:23.350Z,929.86
2018-10-01T01:20:23.211Z,929.89
2018-10-01T01:21:23.232Z,929.83
2018-10-01T01:22:23.256Z,929.83
2018-10-01T01:23:23.263Z,929.82
2018-10-01T01:24:23.536Z,929.81
2018-10-01T01:25:23.312Z,929.80
2018-10-01T01:26:23.322Z,929.78
2018-10-01T01:27:23.318Z,929.80
2018-10-01T01:28:23.328Z,929.72
2018-10-01T01:29:23.500Z,929.76
2018-10-01T01:30:23.345Z,929.71
2018-10-01T01:31:23.395Z,929.71
2018-10-01T01:32:23.373Z,929.69
2018-10-01T01:33:23.447Z,929.69
2018-10-01T01:34:23.453Z,929.70
2018-10-01T01:35:23.436Z,929.68
2018-10-01T01:36:23.440Z,929.69
2018-10-01T01:37:23.476Z,929.71
2018-10-01T01:38:23.630Z,929.65
2018-10-01T01:39:23.515Z,929.70
2018-10-01T01:40:23.493Z,929.65
2018-10-01T01:41:23.551Z,929.66
2018-10-01T01:42:23.555Z,929.63
2018-10-01T01:43:23.699Z,929.60
2018-10-01T01:44:23.565Z,929.62
2018-10-01T01:45:23.597Z,929.61
2018-10-01T01:46:23.609Z,929.63
2018-10-01T01:47:23.597Z,929.61
2018-10-01T01:48:23.818Z,929.63
2018-10-01T01:49:23.676Z,929.63
2018-10-01T01:50:23.682Z,929.62
2018-10-01T01:51:23.678Z,929.60
2018-10-01T01:52:23.702Z,929.61
2018-10-01T01:53:23.686Z,929.62
2018-10-01T01:54:23.731Z,929.63
2018-10-01T01:55:23.731Z,929.63
2018-10-01T01:56:23.760Z,929.61
2018-10-01T01:57:23.909Z,929.64
2018-10-01T01:58:23.770Z,929.66
2018-10-01T01:59:23.795Z,929.66
2018-10-01T02:00:23.790Z,929.69
2018-10-01T02:01:23.840Z,929.65
2018-10-01T02:02:24.019Z,929.69
2018-10-01T02:03:23.868Z,929.68
2018-10-01T02:04:23.879Z,929.67
2018-10-01T02:05:23.868Z,929.68
2018-10-01T02:06:23.881Z,929.64
2018-10-01T02:07:23.958Z,929.66
2018-10-01T02:08:23.952Z,929.61
2018-10-01T02:09:24.094Z,929.59
2018-10-01T02:10:23.958Z,929.57
2018-10-01T02:11:23.992Z,929.59
2018-10-01T02:12:24.001Z,929.58
2018-10-01T02:13:24.018Z,929.58
2018-10-01T02:14:24.151Z,929.61
2018-10-01T02:15:24.015Z,929.59
2018-10-01T02:16:24.047Z,929.61
2018-10-01T02:17:24.057Z,929.56
2018-10-01T02:18:24.081Z,929.53
2018-10-01T02:19:24.146Z,929.52
2018-10-01T02:20:24.108Z,929.52
2018-10-01T02:21:24.114Z,929.49
2018-10-01T02:22:24.274Z,929.45
2018-10-01T02:23:24.162Z,929.43
2018-10-01T02:24:24.173Z,929.39
2018-10-01T02:25:24.208Z,929.39
2018-10-01T02:26:24.178Z,929.39
2018-10-01T02:27:24.360Z,929.36
2018-10-01T02:28:24.238Z,929.33
2018-10-01T02:29:24.267Z,929.33
2018-10-01T02:30:24.267Z,929.32
2018-10-01T02:31:24.262Z,929.33
2018-10-01T02:32:24.440Z,929.29
2018-10-01T02:33:24.301Z,929.28
2018-10-01T02:34:24.324Z,929.28
2018-10-01T02:35:24.326Z,929.25
2018-10-01T02:36:24.348Z,929.27
2018-10-01T02:37:24.515Z,929.24
2018-10-01T02:38:24.391Z,929.31
2018-10-01T02:39:24.403Z,929.24
2018-10-01T02:40:24.446Z,929.24
2018-10-01T02:41:24.426Z,929.25
2018-10-01T02:42:24.593Z,929.21
2018-10-01T02:43:24.437Z,929.19
2018-10-01T02:44:24.485Z,929.20
2018-10-01T02:45:24.481Z,929.21
2018-10-01T02:46:24.483Z,929.21
2018-10-01T02:47:24.667Z,929.19
2018-10-01T02:48:24.514Z,929.20
2018-10-01T02:49:24.527Z,929.18
2018-10-01T02:50:24.556Z,929.16
2018-10-01T02:51:24.555Z,929.17
2018-10-01T02:52:24.719Z,929.17
2018-10-01T02:53:24.591Z,929.15
2018-10-01T02:54:24.610Z,929.12
2018-10-01T02:55:24.623Z,929.09
2018-10-01T02:56:24.659Z,929.06
2018-10-01T02:57:24.669Z,929.03
2018-10-01T02:58:24.845Z,929.01
2018-10-01T02:59:24.670Z,928.97
2018-10-01T03:00:24.691Z,928.98
2018-10-01T03:01:24.725Z,928.97
2018-10-01T03:02:24.734Z,928.96
2018-10-01T03:03:24.895Z,928.93
2018-10-01T03:04:24.768Z,928.92
2018-10-01T03:05:24.758Z,928.93
2018-10-01T03:06:24.785Z,928.96
2018-10-01T03:07:24.818Z,928.90
2018-10-01T03:08:24.968Z,928.90
2018-10-01T03:09:24.851Z,928.87
2018-10-01T03:10:24.859Z,928.90
2018-10-01T03:11:24.879Z,928.92
2018-10-01T03:12:25.002Z,928.85
2018-10-01T03:13:25.026Z,928.89
2018-10-01T03:14:24.923Z,928.88
2018-10-01T03:15:24.913Z,928.92
2018-10-01T03:16:24.951Z,928.86
2018-10-01T03:17:24.955Z,928.86
2018-10-01T03:18:25.138Z,928.84
2018-10-01T03:19:24.985Z,928.79
2018-10-01T03:20:25.001Z,928.81
2018-10-01T03:21:25.048Z,928.79
2018-10-01T03:22:25.038Z,928.75
2018-10-01T03:23:25.162Z,928.76
2018-10-01T03:24:25.059Z,928.75
2018-10-01T03:25:25.067Z,928.77
2018-10-01T03:26:25.092Z,928.72
2018-10-01T03:27:25.107Z,928.68
2018-10-01T03:28:25.268Z,928.64
2018-10-01T03:29:25.149Z,928.65
2018-10-01T03:30:25.148Z,928.64
2018-10-01T03:31:25.207Z,928.66
2018-10-01T03:32:25.196Z,928.66
2018-10-01T03:33:25.288Z,928.63
2018-10-01T03:34:25.225Z,928.64
2018-10-01T03:35:25.375Z,928.66
2018-10-01T03:36:25.233Z,928.66
2018-10-01T03:37:25.257Z,928.66
2018-10-01T03:38:25.297Z,928.60
2018-10-01T03:39:25.280Z,928.60
2018-10-01T03:40:25.428Z,928.55
2018-10-01T03:41:25.308Z,928.54
2018-10-01T03:42:25.338Z,928.54
2018-10-01T03:43:25.325Z,928.51
2018-10-01T03:44:25.337Z,928.51
2018-10-01T03:45:25.500Z,928.49
2018-10-01T03:46:25.390Z,928.50
2018-10-01T03:47:25.411Z,928.46
2018-10-01T03:48:25.416Z,928.46
2018-10-01T03:49:25.433Z,928.47
2018-10-01T03:50:25.597Z,928.43
2018-10-01T03:51:25.440Z,928.41
2018-10-01T03:52:25.482Z,928.42
2018-10-01T03:53:25.497Z,928.43
2018-10-01T03:54:25.511Z,928.38
2018-10-01T03:55:25.519Z,928.41
2018-10-01T03:56:25.682Z,928.40
2018-10-01T03:57:25.546Z,928.39
2018-10-01T03:58:25.557Z,928.43
2018-10-01T03:59:25.577Z,928.45
2018-10-01T04:00:25.606Z,928.47
2018-10-01T04:01:25.754Z,928.46
2018-10-01T04:02:25.623Z,928.47
2018-10-01T04:03:25.635Z,928.46
2018-10-01T04:04:25.653Z,928.48
2018-10-01T04:05:25.674Z,928.50
2018-10-01T04:06:25.842Z,928.46
2018-10-01T04:07:25.700Z,928.41
2018-10-01T04:08:25.705Z,928.42
2018-10-01T04:09:25.715Z,928.34
2018-10-01T04:10:25.732Z,928.28
2018-10-01T04:11:25.787Z,928.20
2018-10-01T04:12:25.783Z,928.16
2018-10-01T04:13:25.780Z,928.16
2018-10-01T04:14:25.829Z,928.10
2018-10-01T04:15:25.818Z,928.06
2018-10-01T04:16:25.969Z,928.05
2018-10-01T04:17:25.851Z,927.99
2018-10-01T04:18:25.843Z,927.96
2018-10-01T04:19:25.869Z,927.94
2018-10-01T04:20:25.891Z,927.90
2018-10-01T04:21:26.057Z,927.90
2018-10-01T04:22:25.914Z,927.87
2018-10-01T04:23:25.934Z,927.85
2018-10-01T04:24:25.937Z,927.81
2018-10-01T04:25:25.949Z,927.88
2018-10-01T04:26:26.150Z,927.87
2018-10-01T04:27:25.990Z,927.89
2018-10-01T04:28:25.995Z,927.89
2018-10-01T04:29:26.055Z,927.87
2018-10-01T04:30:26.049Z,927.84
2018-10-01T04:31:26.098Z,927.86
2018-10-01T04:32:26.070Z,927.89
2018-10-01T04:33:26.061Z,927.87
2018-10-01T04:34:26.090Z,927.87
2018-10-01T04:35:26.109Z,927.83
2018-10-01T04:36:26.266Z,927.82
2018-10-01T04:37:26.118Z,927.82
2018-10-01T04:38:26.156Z,927.79
2018-10-01T04:39:26.178Z,927.80
2018-10-01T04:40:26.197Z,927.81
2018-10-01T04:41:26.356Z,927.82
2018-10-01T04:42:26.227Z,927.82
2018-10-01T04:43:26.256Z,927.79
2018-10-01T04:44:26.261Z,927.80
2018-10-01T04:45:26.274Z,927.74
2018-10-01T04:46:26.320Z,927.72
2018-10-01T04:47:26.285Z,927.67
2018-10-01T04:48:26.290Z,927.71
2018-10-01T04:49:26.298Z,927.69
2018-10-01T04:50:26.347Z,927.70
2018-10-01T04:51:26.418Z,927.66
2018-10-01T04:52:26.355Z,927.69
2018-10-01T04:53:26.373Z,927.66
2018-10-01T04:54:26.396Z,927.64
2018-10-01T04:55:26.419Z,927.62
2018-10-01T04:56:26.492Z,927.64
2018-10-01T04:57:26.477Z,927.60
2018-10-01T04:58:26.495Z,927.59
2018-10-01T04:59:26.461Z,927.57
2018-10-01T05:00:26.483Z,927.55
2018-10-01T05:01:26.656Z,927.58
2018-10-01T05:02:26.516Z,927.55
2018-10-01T05:03:26.529Z,927.55
2018-10-01T05:04:26.536Z,927.51
2018-10-01T05:05:26.538Z,927.53
2018-10-01T05:06:26.631Z,927.50
2018-10-01T05:07:26.566Z,927.50
2018-10-01T05:08:26.598Z,927.49
2018-10-01T05:09:26.622Z,927.48
2018-10-01T05:10:26.626Z,927.48
2018-10-01T05:11:26.787Z,927.46
2018-10-01T05:12:26.655Z,927.44
2018-10-01T05:13:26.696Z,927.42
2018-10-01T05:14:26.729Z,927.43
2018-10-01T05:15:26.700Z,927.40
2018-10-01T05:16:26.717Z,927.41
2018-10-01T05:17:26.745Z,927.42
2018-10-01T05:18:26.735Z,927.44
2018-10-01T05:19:26.754Z,927.43
2018-10-01T05:20:26.768Z,927.48
2018-10-01T05:21:26.826Z,927.45
2018-10-01T05:22:26.794Z,927.46
2018-10-01T05:23:26.830Z,927.41
2018-10-01T05:24:26.854Z,927.39
2018-10-01T05:25:26.849Z,927.41
2018-10-01T05:26:26.869Z,927.42
2018-10-01T05:27:27.034Z,927.47
2018-10-01T05:28:26.903Z,927.47
2018-10-01T05:29:26.914Z,927.43
2018-10-01T05:30:26.929Z,927.46
2018-10-01T05:31:26.942Z,927.47
2018-10-01T05:32:26.955Z,927.45
2018-10-01T05:33:27.120Z,927.48
2018-10-01T05:34:26.978Z,927.52
2018-10-01T05:35:27.034Z,927.51
2018-10-01T05:36:27.011Z,927.49
2018-10-01T05:37:27.051Z,927.49
2018-10-01T05:38:27.115Z,927.48
2018-10-01T05:39:27.063Z,927.44
2018-10-01T05:40:27.070Z,927.46
2018-10-01T05:41:27.099Z,927.41
2018-10-01T05:42:27.101Z,927.43
2018-10-01T05:43:27.266Z,927.39
2018-10-01T05:44:27.114Z,927.37
2018-10-01T05:45:27.136Z,927.35
2018-10-01T05:46:27.143Z,927.32
2018-10-01T05:47:27.177Z,927.33
2018-10-01T05:48:27.238Z,927.36
2018-10-01T05:49:27.193Z,927.34
2018-10-01T05:50:27.232Z,927.29
2018-10-01T05:51:27.241Z,927.30
2018-10-01T05:52:27.262Z,927.29
2018-10-01T05:53:27.323Z,927.23
2018-10-01T05:54:27.281Z,927.21
2018-10-01T05:55:27.293Z,927.19
2018-10-01T05:56:27.293Z,927.18
2018-10-01T05:57:27.328Z,927.19
2018-10-01T05:58:27.400Z,927.16
2018-10-01T05:59:27.540Z,927.14
2018-10-01T06:00:27.414Z,927.16
2018-10-01T06:01:27.393Z,927.17
2018-10-01T06:02:27.394Z,927.14
2018-10-01T06:03:27.400Z,927.14
2018-10-01T06:04:27.563Z,927.13
2018-10-01T06:05:27.447Z,927.05
2018-10-01T06:06:27.461Z,927.05
2018-10-01T06:07:27.479Z,927.10
2018-10-01T06:08:27.522Z,927.14
2018-10-01T06:09:27.660Z,927.13
2018-10-01T06:10:27.539Z,927.14
2018-10-01T06:11:27.537Z,927.17
2018-10-01T06:12:27.580Z,927.17
2018-10-01T06:13:27.567Z,927.21
2018-10-01T06:14:27.732Z,927.17
2018-10-01T06:15:27.570Z,927.18
2018-10-01T06:16:27.613Z,927.20
2018-10-01T06:17:27.606Z,927.17
2018-10-01T06:18:27.645Z,927.21
2018-10-01T06:19:27.639Z,927.20
2018-10-01T06:20:27.658Z,927.19
2018-10-01T06:21:27.669Z,927.19
2018-10-01T06:22:27.740Z,927.20
2018-10-01T06:23:27.716Z,927.23
2018-10-01T06:24:27.732Z,927.17
2018-10-01T06:25:27.757Z,927.17
2018-10-01T06:26:27.757Z,927.20
2018-10-01T06:27:27.906Z,927.20
2018-10-01T06:28:27.794Z,927.19
2018-10-01T06:29:27.784Z,927.24
2018-10-01T06:30:27.811Z,927.25
2018-10-01T06:31:27.809Z,927.27
2018-10-01T06:33:27.853Z,927.29
2018-10-01T06:34:27.863Z,927.29
2018-10-01T06:35:27.891Z,927.33
2018-10-01T06:36:27.894Z,927.33
2018-10-01T06:37:27.966Z,927.35
2018-10-01T06:38:28.067Z,927.36
2018-10-01T06:39:27.967Z,927.31
2018-10-01T06:40:27.960Z,927.29
2018-10-01T06:41:28.093Z,927.33
2018-10-01T06:42:28.038Z,927.32
2018-10-01T06:43:28.150Z,927.31
2018-10-01T06:44:28.043Z,927.33
2018-10-01T06:45:28.034Z,927.34
2018-10-01T06:46:28.058Z,927.31
2018-10-01T06:47:28.065Z,927.29
2018-10-01T06:48:28.210Z,927.31
2018-10-01T06:49:28.105Z,927.32
2018-10-01T06:50:28.112Z,927.34
2018-10-01T06:51:28.128Z,927.33
2018-10-01T06:52:28.189Z,927.29
2018-10-01T06:53:28.197Z,927.37
2018-10-01T06:54:28.166Z,927.36
2018-10-01T06:55:28.173Z,927.35
2018-10-01T06:56:28.182Z,927.35
2018-10-01T06:57:28.223Z,927.31
2018-10-01T06:58:28.334Z,927.31
2018-10-01T06:59:28.248Z,927.34
2018-10-01T07:00:28.258Z,927.30
2018-10-01T07:01:28.270Z,927.33
2018-10-01T07:02:28.280Z,927.32
2018-10-01T07:03:28.455Z,927.33
2018-10-01T07:04:28.316Z,927.37
2018-10-01T07:05:28.396Z,927.42
2018-10-01T07:06:28.346Z,927.40
2018-10-01T07:07:28.359Z,927.43
2018-10-01T07:08:28.467Z,927.41
2018-10-01T07:09:28.394Z,927.43
2018-10-01T07:10:28.407Z,927.42
2018-10-01T07:11:28.608Z,927.41
2018-10-01T07:12:28.451Z,927.44
2018-10-01T07:13:28.513Z,927.44
2018-10-01T07:14:28.450Z,927.49
2018-10-01T07:15:28.479Z,927.49
2018-10-01T07:16:28.771Z,927.52
2018-10-01T07:17:28.642Z,927.51
2018-10-01T07:18:28.523Z,927.52
2018-10-01T07:19:28.537Z,927.51
2018-10-01T07:20:28.551Z,927.56
2018-10-01T07:21:28.662Z,927.55
2018-10-01T07:22:28.645Z,927.53
2018-10-01T07:23:28.779Z,927.53
2018-10-01T07:24:28.599Z,927.54
2018-10-01T07:25:28.642Z,927.54
2018-10-01T07:26:28.729Z,927.50
2018-10-01T07:27:28.661Z,927.49
2018-10-01T07:28:28.683Z,927.47
2018-10-01T07:29:28.677Z,927.51
2018-10-01T07:30:28.705Z,927.49
2018-10-01T07:31:28.762Z,927.50
2018-10-01T07:32:28.727Z,927.53
2018-10-01T07:33:28.749Z,927.50
2018-10-01T07:34:28.753Z,927.48
2018-10-01T07:35:28.813Z,927.50
2018-10-01T07:36:28.964Z,927.53
2018-10-01T07:37:28.798Z,927.52
2018-10-01T07:38:28.815Z,927.52
2018-10-01T07:39:28.831Z,927.55
2018-10-01T07:40:28.861Z,927.57
2018-10-01T07:41:28.972Z,927.62
2018-10-01T07:42:28.881Z,927.59
2018-10-01T07:43:28.890Z,927.64
2018-10-01T07:44:28.913Z,927.72
2018-10-01T07:45:28.921Z,927.74
2018-10-01T07:46:29.097Z,927.76
2018-10-01T07:47:28.949Z,927.76
2018-10-01T07:48:28.953Z,927.80
2018-10-01T07:49:28.994Z,927.81
2018-10-01T07:50:29.014Z,927.79
2018-10-01T07:51:29.150Z,927.81
2018-10-01T07:52:29.029Z,927.76
2018-10-01T07:53:29.101Z,927.79
2018-10-01T07:54:29.115Z,927.82
2018-10-01T07:55:29.080Z,927.82
2018-10-01T07:56:29.086Z,927.85
2018-10-01T07:57:29.135Z,927.90
2018-10-01T07:58:29.118Z,927.95
2018-10-01T07:59:29.289Z,927.95
2018-10-01T08:00:29.236Z,927.94
2018-10-01T08:01:29.173Z,927.99
2018-10-01T08:02:29.283Z,928.01
2018-10-01T08:03:29.204Z,928.03
2018-10-01T08:04:29.268Z,928.01
2018-10-01T08:05:29.216Z,928.04
2018-10-01T08:06:29.250Z,928.06
2018-10-01T08:07:29.235Z,928.04
2018-10-01T08:08:29.308Z,928.08
2018-10-01T08:09:29.499Z,928.10
2018-10-01T08:10:29.308Z,928.13
2018-10-01T08:11:29.317Z,928.09
2018-10-01T08:12:29.321Z,928.09
2018-10-01T08:13:29.338Z,928.12
2018-10-01T08:14:29.541Z,928.12
2018-10-01T08:15:29.366Z,928.17
2018-10-01T08:16:29.400Z,928.17
2018-10-01T08:17:29.388Z,928.18
2018-10-01T08:18:29.407Z,928.19
2018-10-01T08:19:29.617Z,928.15
2018-10-01T08:20:29.521Z,928.22
2018-10-01T08:21:29.502Z,928.23
2018-10-01T08:22:29.486Z,928.26
2018-10-01T08:23:29.524Z,928.25
2018-10-01T08:24:29.572Z,928.27
2018-10-01T08:25:29.529Z,928.31
2018-10-01T08:26:29.634Z,928.34
2018-10-01T08:27:29.553Z,928.34
2018-10-01T08:28:29.588Z,928.34
2018-10-01T08:29:29.674Z,928.37
2018-10-01T08:30:29.601Z,928.38
2018-10-01T08:31:29.659Z,928.35
2018-10-01T08:32:29.705Z,928.37
2018-10-01T08:33:29.663Z,928.38
2018-10-01T08:34:29.648Z,928.32
2018-10-01T08:35:29.720Z,928.33
2018-10-01T08:36:29.845Z,928.34
2018-10-01T08:37:29.712Z,928.37
2018-10-01T08:38:29.768Z,928.34
2018-10-01T08:39:29.729Z,928.38
2018-10-01T08:40:29.771Z,928.35
2018-10-01T08:41:29.883Z,928.34
2018-10-01T08:42:29.784Z,928.37
2018-10-01T08:43:29.783Z,928.36
2018-10-01T08:44:29.879Z,928.42
2018-10-01T08:45:29.829Z,928.43
2018-10-01T08:46:29.986Z,928.43
2018-10-01T08:47:29.895Z,928.46
2018-10-01T08:48:29.865Z,928.46
2018-10-01T08:49:29.872Z,928.47
2018-10-01T08:50:29.923Z,928.53
2018-10-01T08:51:29.978Z,928.48
2018-10-01T08:52:29.926Z,928.53
2018-10-01T08:53:29.996Z,928.56
2018-10-01T08:54:29.936Z,928.62
2018-10-01T08:55:30.011Z,928.63
2018-10-01T08:56:30.111Z,928.62
2018-10-01T08:57:29.979Z,928.60
2018-10-01T08:58:30.039Z,928.59
2018-10-01T08:59:30.139Z,928.60
2018-10-01T09:00:30.043Z,928.61
2018-10-01T09:01:30.058Z,928.59
2018-10-01T09:02:30.145Z,928.61
2018-10-01T09:03:30.083Z,928.64
2018-10-01T09:04:30.167Z,928.66
2018-10-01T09:05:30.162Z,928.67
2018-10-01T09:06:30.126Z,928.64
2018-10-01T09:07:30.154Z,928.65
2018-10-01T09:08:30.233Z,928.64
2018-10-01T09:09:30.173Z,928.64
2018-10-01T09:10:30.216Z,928.62
2018-10-01T09:11:30.340Z,928.64
2018-10-01T09:12:30.226Z,928.64
2018-10-01T09:13:30.225Z,928.65
2018-10-01T09:14:30.328Z,928.71
2018-10-01T09:15:30.281Z,928.68
2018-10-01T09:16:30.330Z,928.68
2018-10-01T09:17:30.325Z,928.70
2018-10-01T09:18:30.330Z,928.66
2018-10-01T09:19:30.322Z,928.70
2018-10-01T09:20:30.361Z,928.74
2018-10-01T09:21:30.637Z,928.77
2018-10-01T09:22:30.360Z,928.75
2018-10-01T09:23:30.487Z,928.78
2018-10-01T09:24:30.446Z,928.79
2018-10-01T09:25:30.428Z,928.80
2018-10-01T09:26:30.481Z,928.80
2018-10-01T09:27:30.601Z,928.84
2018-10-01T09:28:30.473Z,928.87
2018-10-01T09:29:30.523Z,928.92
2018-10-01T09:30:30.488Z,928.92
2018-10-01T09:31:30.513Z,928.96
2018-10-01T09:32:30.681Z,929.01
2018-10-01T09:33:30.589Z,929.00
2018-10-01T09:34:30.563Z,929.05
2018-10-01T09:35:30.641Z,929.13
2018-10-01T09:36:30.591Z,929.16
2018-10-01T09:37:30.652Z,929.19
2018-10-01T09:38:30.632Z,929.22
2018-10-01T09:39:30.640Z,929.25
2018-10-01T09:40:30.704Z,929.26
2018-10-01T09:41:30.649Z,929.20
2018-10-01T09:42:30.794Z,929.25
2018-10-01T09:43:30.715Z,929.27
2018-10-01T09:44:30.739Z,929.28
2018-10-01T09:45:30.737Z,929.35
2018-10-01T09:46:30.817Z,929.38
2018-10-01T09:47:30.750Z,929.33
2018-10-01T09:48:30.833Z,929.41
2018-10-01T09:49:30.839Z,929.38
2018-10-01T09:50:30.886Z,929.41
2018-10-01T09:51:30.931Z,929.39
2018-10-01T09:52:30.955Z,929.42
2018-10-01T09:53:30.866Z,929.39
2018-10-01T09:54:30.876Z,929.41
2018-10-01T09:55:30.884Z,929.40
2018-10-01T09:56:31.017Z,929.40
2018-10-01T09:57:30.935Z,929.38
2018-10-01T09:58:30.994Z,929.39
2018-10-01T09:59:31.081Z,929.38
2018-10-01T10:00:30.964Z,929.39
2018-10-01T10:01:30.990Z,929.42
2018-10-01T10:02:31.063Z,929.42
2018-10-01T10:03:31.038Z,929.43
2018-10-01T10:04:31.275Z,929.41
2018-10-01T10:05:31.060Z,929.44
2018-10-01T10:06:31.103Z,929.50
2018-10-01T10:07:31.095Z,929.47
2018-10-01T10:08:31.179Z,929.50
2018-10-01T10:09:31.261Z,929.50
2018-10-01T10:10:31.161Z,929.48
2018-10-01T10:11:31.192Z,929.47
2018-10-01T10:12:31.165Z,929.47
2018-10-01T10:13:31.189Z,929.43
2018-10-01T10:14:31.381Z,929.42
2018-10-01T10:15:31.224Z,929.43
2018-10-01T10:16:31.319Z,929.41
2018-10-01T10:17:31.265Z,929.43
2018-10-01T10:18:31.351Z,929.42
2018-10-01T10:19:31.432Z,929.40
2018-10-01T10:20:31.363Z,929.42
2018-10-01T10:21:31.317Z,929.42
2018-10-01T10:22:31.439Z,929.42
2018-10-01T10:23:31.366Z,929.40
2018-10-01T10:24:31.433Z,929.39
2018-10-01T10:25:31.420Z,929.42
2018-10-01T10:26:31.549Z,929.46
2018-10-01T10:27:31.405Z,929.43
2018-10-01T10:28:31.529Z,929.43
2018-10-01T10:29:31.441Z,929.44
2018-10-01T10:30:31.467Z,929.42
2018-10-01T10:31:31.636Z,929.40
2018-10-01T10:32:31.561Z,929.41
2018-10-01T10:33:31.521Z,929.40
2018-10-01T10:34:31.593Z,929.42
2018-10-01T10:35:31.567Z,929.40
2018-10-01T10:36:31.612Z,929.43
2018-10-01T10:37:31.583Z,929.41
2018-10-01T10:38:31.686Z,929.42
2018-10-01T10:39:31.836Z,929.45
2018-10-01T10:40:31.635Z,929.48
2018-10-01T10:41:31.641Z,929.51
2018-10-01T10:42:31.674Z,929.50
2018-10-01T10:43:31.683Z,929.48
2018-10-01T10:44:31.858Z,929.50
2018-10-01T10:45:31.710Z,929.52
2018-10-01T10:46:31.750Z,929.54
2018-10-01T10:47:31.791Z,929.55
2018-10-01T10:48:31.776Z,929.56
2018-10-01T10:49:31.920Z,929.61
2018-10-01T10:50:31.897Z,929.60
2018-10-01T10:51:31.818Z,929.64
2018-10-01T10:52:31.827Z,929.70
2018-10-01T10:53:31.853Z,929.64
2018-10-01T10:54:31.958Z,929.68
2018-10-01T10:55:31.869Z,929.70
2018-10-01T10:56:31.984Z,929.65
2018-10-01T10:57:31.909Z,929.69
2018-10-01T10:58:31.932Z,929.62
2018-10-01T10:59:32.107Z,929.62
2018-10-01T11:00:31.968Z,929.65
2018-10-01T11:01:31.985Z,929.67
2018-10-01T11:02:32.059Z,929.69
2018-10-01T11:03:32.006Z,929.69
2018-10-01T11:04:32.247Z,929.70
2018-10-01T11:05:32.049Z,929.71
2018-10-01T11:06:32.052Z,929.76
2018-10-01T11:07:32.071Z,929.73
2018-10-01T11:08:32.110Z,929.75
2018-10-01T11:09:35.718Z,929.80
2018-10-01T11:10:32.118Z,929.80
2018-10-01T11:11:32.142Z,929.83
2018-10-01T11:12:32.146Z,929.85
2018-10-01T11:13:32.170Z,929.83
2018-10-01T11:14:32.386Z,929.83
2018-10-01T11:15:32.346Z,929.81
2018-10-01T11:16:32.207Z,929.80
2018-10-01T11:17:32.226Z,929.78
2018-10-01T11:18:32.342Z,929.78
2018-10-01T11:19:32.287Z,929.77
2018-10-01T11:20:32.490Z,929.78
2018-10-01T11:21:32.493Z,929.81
2018-10-01T11:22:32.342Z,929.73
2018-10-01T11:23:32.347Z,929.71
2018-10-01T11:24:32.361Z,929.67
2018-10-01T11:25:32.617Z,929.68
2018-10-01T11:26:32.375Z,929.64
2018-10-01T11:27:32.464Z,929.60
2018-10-01T11:28:32.429Z,929.61
2018-10-01T11:29:32.431Z,929.63
2018-10-01T11:30:32.459Z,929.62
2018-10-01T11:31:32.627Z,929.66
2018-10-01T11:32:32.497Z,929.61
2018-10-01T11:33:32.571Z,929.64
2018-10-01T11:34:32.583Z,929.63
2018-10-01T11:35:32.546Z,929.66
2018-10-01T11:36:32.614Z,929.66
2018-10-01T11:37:32.717Z,929.66
2018-10-01T11:38:32.575Z,929.70
2018-10-01T11:39:32.603Z,929.73
2018-10-01T11:40:32.639Z,929.72
2018-10-01T11:41:32.631Z,929.72
2018-10-01T11:42:32.718Z,929.73
2018-10-01T11:43:32.736Z,929.72
2018-10-01T11:44:32.676Z,929.72
2018-10-01T11:45:32.735Z,929.71
2018-10-01T11:46:32.722Z,929.70
2018-10-01T11:47:32.739Z,929.72
2018-10-01T11:48:32.812Z,929.73
2018-10-01T11:49:32.766Z,929.68
2018-10-01T11:50:32.835Z,929.68
2018-10-01T11:51:32.884Z,929.67
2018-10-01T11:52:32.818Z,929.67
2018-10-01T11:53:32.993Z,929.64
2018-10-01T11:54:32.853Z,929.61
2018-10-01T11:55:32.887Z,929.63
2018-10-01T11:56:32.890Z,929.54
2018-10-01T11:57:32.944Z,929.53
2018-10-01T11:58:33.073Z,929.53
2018-10-01T11:59:32.952Z,929.53
2018-10-01T12:00:32.970Z,929.59
2018-10-01T12:01:32.999Z,929.56
2018-10-01T12:02:33.114Z,929.53
2018-10-01T12:03:33.083Z,929.57
2018-10-01T12:04:33.033Z,929.59
2018-10-01T12:05:33.093Z,929.60
2018-10-01T12:06:33.135Z,929.64
2018-10-01T12:07:33.098Z,929.59
2018-10-01T12:08:33.217Z,929.58
2018-10-01T12:09:33.170Z,929.60
2018-10-01T12:10:33.224Z,929.61
2018-10-01T12:11:33.157Z,929.62
2018-10-01T12:12:33.166Z,929.58
2018-10-01T12:13:33.350Z,929.54
2018-10-01T12:14:33.198Z,929.60
2018-10-01T12:15:33.296Z,929.54
2018-10-01T12:16:33.254Z,929.54
2018-10-01T12:17:33.252Z,929.53
2018-10-01T12:18:33.438Z,929.49
2018-10-01T12:19:33.327Z,929.48
2018-10-01T12:20:33.332Z,929.42
2018-10-01T12:21:33.349Z,929.44
2018-10-01T12:22:33.363Z,929.47
2018-10-01T12:23:33.540Z,929.46
2018-10-01T12:24:33.444Z,929.48
2018-10-01T12:25:33.431Z,929.51
2018-10-01T12:26:33.440Z,929.50
2018-10-01T12:27:33.558Z,929.47
2018-10-01T12:28:33.512Z,929.51
2018-10-01T12:29:33.482Z,929.48